Time;durP1;ratioP1;P1;durP2;ratioP2;P2;SDS_P1;SDS_P2;PMS_P1;PMS_P2;Temp;Humidity;BMP_temperature;BMP_pressure;BME280_temperature;BME280_humidity;BME280_pressure;Samples;Min_cycle;Max_cycle;Signal;HPM_P1;HPM_P2
2023/10/21 00:00:32;;;;;;;4.43;2.63;;;;;;;14.56;78.77;97427.34;10361672;28;20065;-59
2023/10/21 00:05:34;;;;;;;5.03;3.00;;;;;;;14.70;78.28;97424.88;10363240;28;20377;-60
2023/10/21 00:10:35;;;;;;;4.70;2.65;;;;;;;14.77;78.30;97419.16;10364763;28;20678;-58
2023/10/21 00:15:37;;;;;;;3.15;2.00;;;;;;;14.74;78.43;97420.53;10364768;28;20038;-58
2023/10/21 00:20:38;;;;;;;4.72;2.72;;;;;;;14.79;78.36;97423.25;10366111;28;20561;-60
2023/10/21 00:25:40;;;;;;;3.72;2.38;;;;;;;14.79;78.32;97425.94;10365228;28;20052;-61
2023/10/21 00:30:45;;;;;;;3.38;2.17;;;;;;;14.91;78.04;97430.22;10363932;28;20473;-59
2023/10/21 00:35:46;;;;;;;4.53;2.58;;;;;;;14.87;78.43;97438.09;10363697;28;20442;-59
2023/10/21 00:40:50;;;;;;;5.70;2.83;;;;;;;14.81;78.86;97440.00;10363747;28;20049;-61
2023/10/21 00:45:52;;;;;;;4.25;1.92;;;;;;;14.91;78.53;97438.31;10363960;28;20566;-60
2023/10/21 00:50:54;;;;;;;4.70;1.90;;;;;;;15.01;78.27;97441.03;10370089;28;20065;-60
2023/10/21 00:55:56;;;;;;;3.95;2.47;;;;;;;15.08;78.18;97446.91;10365277;28;20149;-60
2023/10/21 01:01:02;;;;;;;3.63;2.08;;;;;;;14.93;78.64;97449.69;10365659;28;20465;-60
2023/10/21 01:06:04;;;;;;;2.90;2.20;;;;;;;14.99;78.73;97457.50;10365135;28;20049;-60
2023/10/21 01:11:07;;;;;;;3.72;1.77;;;;;;;15.03;78.80;97447.75;10361785;28;20054;-61
2023/10/21 01:16:09;;;;;;;6.22;2.05;;;;;;;15.09;78.57;97448.56;10364728;28;20054;-59
2023/10/21 01:21:10;;;;;;;1.92;1.73;;;;;;;15.08;78.60;97445.00;10363539;28;20152;-60
2023/10/21 01:26:12;;;;;;;2.67;1.88;;;;;;;14.98;79.07;97447.75;10361410;28;20406;-60
2023/10/21 01:31:13;;;;;;;3.67;1.33;;;;;;;14.86;79.70;97445.38;10364631;28;20064;-61
2023/10/21 01:36:15;;;;;;;0.70;0.40;;;;;;;14.89;80.05;97446.75;10360830;28;20034;-62
2023/10/21 01:41:16;;;;;;;2.90;0.40;;;;;;;14.81;80.49;97444.56;10362673;28;20066;-64
2023/10/21 01:46:18;;;;;;;0.47;0.10;;;;;;;14.78;81.51;97434.31;10364183;28;20061;-64
2023/10/21 01:51:19;;;;;;;0.50;0.10;;;;;;;14.84;81.48;97444.84;10361212;28;20126;-64
2023/10/21 01:56:21;;;;;;;1.00;0.10;;;;;;;14.90;81.61;97442.94;10363345;28;20144;-62
2023/10/21 02:01:22;;;;;;;1.55;0.10;;;;;;;14.95;81.57;97442.09;10363848;28;20069;-65
2023/10/21 02:06:24;;;;;;;0.20;0.10;;;;;;;14.90;81.80;97440.22;10362666;28;20108;-63
2023/10/21 02:11:25;;;;;;;0.30;0.10;;;;;;;14.93;81.80;97442.41;10362873;28;20050;-62
2023/10/21 02:16:27;;;;;;;1.42;0.00;;;;;;;14.94;81.82;97445.91;10362397;28;20057;-62
2023/10/21 02:21:29;;;;;;;0.85;0.00;;;;;;;14.95;81.82;97456.44;10363574;28;20554;-63
2023/10/21 02:26:31;;;;;;;1.20;0.00;;;;;;;14.94;82.10;97457.53;10361166;28;20595;-63
2023/10/21 02:31:33;;;;;;;0.10;0.00;;;;;;;15.00;81.68;97455.63;10363529;28;20386;-64
2023/10/21 02:36:35;;;;;;;0.20;0.00;;;;;;;15.04;81.82;97475.63;10361217;28;20054;-62
2023/10/21 02:41:37;;;;;;;0.13;0.00;;;;;;;15.08;81.60;97482.09;10361152;28;20053;-62
2023/10/21 02:46:38;;;;;;;0.63;0.10;;;;;;;15.13;81.70;97506.44;10363339;28;20053;-62
2023/10/21 02:51:40;;;;;;;0.10;0.00;;;;;;;15.20;81.46;97511.53;10360059;28;20073;-60
2023/10/21 02:56:43;;;;;;;0.00;0.00;;;;;;;15.26;81.28;97524.81;10359034;28;20045;-61
2023/10/21 03:01:44;;;;;;;4.40;0.10;;;;;;;15.31;81.13;97540.19;10359910;28;20049;-60
2023/10/21 03:06:45;;;;;;;0.28;0.00;;;;;;;15.33;81.21;97554.25;10357551;28;20046;-59
2023/10/21 03:11:47;;;;;;;0.00;0.00;;;;;;;15.38;81.07;97573.22;10359718;28;20116;-60
2023/10/21 03:16:49;;;;;;;0.20;0.00;;;;;;;15.39;81.07;97580.22;10356418;28;20084;-60
2023/10/21 03:21:50;;;;;;;0.10;0.00;;;;;;;15.34;80.87;97593.75;10360652;28;20034;-60
2023/10/21 03:26:51;;;;;;;0.00;0.00;;;;;;;15.42;80.71;97616.75;10358544;28;20420;-61
2023/10/21 03:31:53;;;;;;;0.68;0.00;;;;;;;15.41;80.43;97631.38;10360372;28;20073;-61
2023/10/21 03:36:54;;;;;;;0.13;0.00;;;;;;;15.43;80.48;97676.03;10365118;28;20077;-60
2023/10/21 03:41:56;;;;;;;0.00;0.00;;;;;;;15.47;79.87;97698.78;10366265;28;20050;-60
2023/10/21 03:46:57;;;;;;;0.60;0.00;;;;;;;15.51;79.61;97723.41;10367279;28;20499;-60
2023/10/21 03:52:01;;;;;;;0.00;0.00;;;;;;;15.59;79.75;97747.22;10364814;28;20041;-60
2023/10/21 03:57:03;;;;;;;2.78;0.00;;;;;;;15.63;79.39;97771.88;10367481;28;20057;-60
2023/10/21 04:02:05;;;;;;;0.57;0.00;;;;;;;15.64;78.87;97792.47;10367016;28;20042;-60
2023/10/21 04:07:07;;;;;;;0.00;0.00;;;;;;;15.61;78.88;97833.63;10367768;28;20056;-61
2023/10/21 04:12:09;;;;;;;0.63;0.00;;;;;;;15.59;78.59;97833.06;10368882;28;20045;-59
2023/10/21 04:17:10;;;;;;;0.00;0.00;;;;;;;15.62;78.59;97849.59;10368627;28;20049;-61
2023/10/21 04:22:12;;;;;;;1.27;0.00;;;;;;;15.75;78.36;97872.63;10365769;28;20101;-61
2023/10/21 04:27:14;;;;;;;0.52;0.00;;;;;;;15.78;78.07;97885.66;10369377;28;20143;-62
2023/10/21 04:32:18;;;;;;;0.00;0.00;;;;;;;15.83;78.14;97909.22;10367713;28;20058;-60
2023/10/21 04:37:20;;;;;;;0.20;0.00;;;;;;;15.84;77.93;97929.81;10368486;28;20042;-60
2023/10/21 04:42:23;;;;;;;0.50;0.08;;;;;;;15.89;78.04;97942.53;10367007;28;20132;-61
2023/10/21 04:47:25;;;;;;;0.25;0.03;;;;;;;16.01;77.59;97943.06;10362037;28;20042;-61
2023/10/21 04:52:26;;;;;;;0.20;0.20;;;;;;;16.01;77.68;97953.91;10365381;28;20401;-61
2023/10/21 04:57:28;;;;;;;0.38;0.10;;;;;;;16.05;77.41;97960.41;10362438;28;20042;-60
2023/10/21 05:02:29;;;;;;;0.40;0.10;;;;;;;15.71;78.51;97981.78;10362984;28;20148;-62
2023/10/21 05:07:31;;;;;;;0.82;0.30;;;;;;;15.47;79.10;97988.47;10363945;28;20048;-63
2023/10/21 05:12:33;;;;;;;0.47;0.10;;;;;;;15.40;79.05;98003.34;10361861;28;20470;-62
2023/10/21 05:17:34;;;;;;;1.70;0.20;;;;;;;15.45;79.07;98014.19;10362636;28;20053;-61
2023/10/21 05:22:36;;;;;;;0.40;0.20;;;;;;;15.43;79.30;98028.00;10360940;28;20108;-61
2023/10/21 05:27:37;;;;;;;1.58;0.20;;;;;;;15.44;79.28;98040.47;10363920;28;20544;-61
2023/10/21 05:32:39;;;;;;;0.28;0.20;;;;;;;15.42;79.26;98047.19;10363366;28;20050;-60
2023/10/21 05:37:40;;;;;;;0.38;0.20;;;;;;;15.39;79.68;98067.50;10361997;28;20066;-61
2023/10/21 05:42:42;;;;;;;0.17;0.10;;;;;;;15.41;79.48;98061.81;10360850;28;20038;-61
2023/10/21 05:47:43;;;;;;;1.05;0.20;;;;;;;15.42;79.41;98087.81;10360681;28;20053;-61
2023/10/21 05:52:47;;;;;;;0.40;0.20;;;;;;;15.39;79.88;98091.06;10360405;28;20131;-61
2023/10/21 05:57:49;;;;;;;2.05;0.30;;;;;;;15.43;79.67;98097.56;10360357;28;20045;-68
2023/10/21 06:02:51;;;;;;;0.30;0.20;;;;;;;15.40;79.33;98103.50;10354182;28;20093;-69
2023/10/21 06:07:53;;;;;;;0.28;0.25;;;;;;;15.38;79.13;98114.63;10358758;28;20050;-67
2023/10/21 06:12:54;;;;;;;1.15;0.30;;;;;;;15.26;79.48;98124.81;10361527;28;20137;-68
2023/10/21 06:17:56;;;;;;;0.35;0.28;;;;;;;15.23;79.54;98145.09;10359479;28;20125;-68
2023/10/21 06:22:58;;;;;;;0.43;0.30;;;;;;;15.26;79.46;98162.69;10357767;28;20042;-65
2023/10/21 06:27:59;;;;;;;3.80;0.55;;;;;;;15.17;79.63;98173.22;10356250;28;20045;-64
2023/10/21 06:33:02;;;;;;;2.13;0.20;;;;;;;15.21;79.57;98187.84;10355339;28;20133;-65
2023/10/21 06:38:08;;;;;;;0.30;0.20;;;;;;;15.21;79.94;98192.47;10358418;28;20042;-66
2023/10/21 06:43:09;;;;;;;3.65;0.20;;;;;;;15.25;80.10;98207.91;10357509;28;20062;-65
2023/10/21 06:48:11;;;;;;;1.65;0.20;;;;;;;15.39;79.69;98221.00;10357867;28;20042;-65
2023/10/21 06:53:14;;;;;;;1.27;0.10;;;;;;;15.44;79.82;98229.16;10358896;28;20054;-66
2023/10/21 06:58:15;;;;;;;0.15;0.10;;;;;;;15.53;79.66;98240.31;10359157;28;20108;-65
2023/10/21 07:03:17;;;;;;;0.10;0.00;;;;;;;15.65;79.08;98254.47;10360733;28;20057;-65
2023/10/21 07:08:18;;;;;;;0.10;0.10;;;;;;;15.84;78.87;98268.47;10357737;28;20053;-64
2023/10/21 07:13:20;;;;;;;0.57;0.20;;;;;;;15.98;78.74;98277.75;10357721;28;20054;-64
2023/10/21 07:18:22;;;;;;;1.48;0.20;;;;;;;16.11;78.25;98290.00;10359216;28;20100;-65
2023/10/21 07:23:23;;;;;;;0.60;0.10;;;;;;;16.15;78.28;98296.56;10358826;28;20137;-63
2023/10/21 07:28:26;;;;;;;1.73;0.20;;;;;;;16.26;78.09;98309.06;10359309;28;20497;-65
2023/10/21 07:33:28;;;;;;;1.02;0.10;;;;;;;16.29;77.59;98306.91;10358308;28;20041;-66
2023/10/21 07:38:30;;;;;;;1.75;0.10;;;;;;;16.29;76.78;98321.28;10357461;28;20065;-64
2023/10/21 07:43:32;;;;;;;0.63;0.00;;;;;;;16.34;76.53;98320.50;10358411;28;20084;-63
2023/10/21 07:48:33;;;;;;;0.10;0.00;;;;;;;16.38;76.08;98338.69;10355559;28;20030;-63
2023/10/21 07:53:35;;;;;;;0.55;0.10;;;;;;;16.46;75.52;98353.63;10352496;28;20046;-63
2023/10/21 07:58:38;;;;;;;2.67;0.08;;;;;;;16.51;75.41;98371.81;10357242;28;20061;-64
2023/10/21 08:03:40;;;;;;;0.03;0.00;;;;;;;16.52;75.08;98376.19;10358170;28;20591;-64
2023/10/21 08:08:42;;;;;;;1.73;0.10;;;;;;;16.69;74.65;98397.69;10356944;28;20041;-65
2023/10/21 08:13:44;;;;;;;0.43;0.00;;;;;;;16.86;73.97;98403.75;10357259;28;20053;-62
2023/10/21 08:18:45;;;;;;;0.10;0.00;;;;;;;16.91;73.82;98409.22;10356917;28;20404;-63
2023/10/21 08:23:47;;;;;;;0.43;0.03;;;;;;;16.86;72.13;98411.91;10362986;28;20485;-63
2023/10/21 08:28:49;;;;;;;0.10;0.05;;;;;;;16.88;72.02;98433.34;10366793;28;20038;-63
2023/10/21 08:33:53;;;;;;;0.30;0.10;;;;;;;16.87;70.76;98443.41;10364056;28;20053;-63
2023/10/21 08:38:55;;;;;;;0.28;0.00;;;;;;;16.84;70.29;98446.63;10361767;28;20128;-64
2023/10/21 08:43:57;;;;;;;0.00;0.00;;;;;;;16.95;69.60;98445.59;10368072;28;20042;-69
2023/10/21 08:49:03;;;;;;;0.30;0.00;;;;;;;17.04;69.20;98454.03;10370456;28;20043;-67
2023/10/21 08:54:06;;;;;;;1.92;0.50;;;;;;;17.09;68.70;98470.34;10365791;28;20450;-65
2023/10/21 08:59:08;;;;;;;0.93;0.10;;;;;;;17.07;68.45;98488.00;10365367;28;20054;-66
2023/10/21 09:04:10;;;;;;;0.85;0.10;;;;;;;17.12;68.36;98490.72;10364283;28;20045;-68
2023/10/21 09:09:26;;;;;;;0.10;0.00;;;;;;;17.29;67.60;98509.53;10363161;28;20493;-66
2023/10/21 09:14:29;;;;;;;0.60;0.10;;;;;;;17.29;67.88;98521.22;10364269;28;20062;-67
2023/10/21 09:19:31;;;;;;;1.55;0.10;;;;;;;17.40;67.58;98536.47;10364052;28;20053;-67
2023/10/21 09:24:33;;;;;;;2.83;0.80;;;;;;;17.39;67.29;98542.16;10363869;28;20054;-65
2023/10/21 09:29:36;;;;;;;1.23;0.20;;;;;;;17.35;65.03;98546.50;10366200;28;20501;-65
2023/10/21 09:34:40;;;;;;;1.83;0.22;;;;;;;17.38;64.53;98563.09;10362429;28;20470;-66
2023/10/21 09:39:43;;;;;;;1.65;0.13;;;;;;;17.38;63.65;98571.25;10382202;28;20041;-67
2023/10/21 09:44:45;;;;;;;2.30;0.10;;;;;;;17.33;62.45;98573.13;10354855;28;20049;-65
2023/10/21 09:49:51;;;;;;;0.93;0.10;;;;;;;17.33;61.89;98584.78;10391919;28;20041;-66
2023/10/21 09:54:56;;;;;;;0.70;0.10;;;;;;;17.68;62.13;98577.06;10349934;28;20060;-61
2023/10/21 09:59:59;;;;;;;1.02;0.10;;;;;;;17.81;61.22;98584.72;10366146;28;20049;-60
2023/10/21 10:05:06;;;;;;;2.13;0.10;;;;;;;17.93;59.99;98579.91;10362649;28;20068;-60
2023/10/21 10:10:12;;;;;;;1.65;0.10;;;;;;;17.97;59.03;98582.88;10360080;28;20054;-59
2023/10/21 10:15:40;;;;;;;;;;;;;;;18.01;60.00;98587.53;10365722;28;20045;-59
2023/10/21 10:20:48;;;;;;;1.67;0.10;;;;;;;18.17;58.54;98590.28;10358697;28;19925;-59
2023/10/21 10:25:51;;;;;;;1.48;0.63;;;;;;;18.37;58.06;98598.47;10360767;28;20042;-60
2023/10/21 10:30:54;;;;;;;0.28;0.00;;;;;;;18.29;57.93;98590.84;10356828;28;20136;-61
2023/10/21 10:35:56;;;;;;;1.23;0.10;;;;;;;18.22;57.76;98593.00;10356864;28;20034;-61
2023/10/21 10:41:02;;;;;;;2.55;0.55;;;;;;;18.07;57.93;98601.13;10353648;28;20061;-60
2023/10/21 10:46:05;;;;;;;1.20;0.10;;;;;;;18.06;58.16;98610.38;10353141;28;20046;-59
2023/10/21 10:51:17;;;;;;;2.03;0.10;;;;;;;18.25;57.52;98608.78;10360600;28;20072;-59
2023/10/21 10:56:19;;;;;;;2.05;0.10;;;;;;;18.39;57.53;98599.00;10356479;28;20046;-60
2023/10/21 11:01:27;;;;;;;1.02;0.30;;;;;;;18.61;56.69;98601.47;10360253;28;20046;-59
2023/10/21 11:06:36;;;;;;;;;;;;;;;18.51;57.27;98614.28;10361234;28;20045;-65
2023/10/21 11:11:45;;;;;;;5.65;1.23;;;;;;;18.53;56.23;98622.97;10359674;28;19971;-63
2023/10/21 11:16:56;;;;;;;1.55;0.05;;;;;;;18.59;56.63;98627.34;10357269;28;20229;-68
2023/10/21 11:21:58;;;;;;;1.73;0.05;;;;;;;18.51;56.72;98619.72;10350853;28;20065;-67
2023/10/21 11:27:00;;;;;;;2.38;0.20;;;;;;;18.45;56.53;98628.97;10360452;28;20165;-66
2023/10/21 11:32:02;;;;;;;0.35;0.00;;;;;;;18.58;56.53;98612.91;10359492;28;20049;-66
2023/10/21 11:37:04;;;;;;;1.83;0.10;;;;;;;18.74;56.44;98621.91;10358355;28;20058;-69
2023/10/21 11:42:16;;;;;;;2.00;0.10;;;;;;;18.81;55.74;98619.72;10355602;28;20042;-67
2023/10/21 11:47:18;;;;;;;2.40;0.57;;;;;;;18.96;55.27;98629.81;10347980;28;20056;-68
2023/10/21 11:52:21;;;;;;;1.42;0.05;;;;;;;19.09;54.33;98633.88;10370584;28;20050;-70
2023/10/21 12:09:19;;;;;;;0.60;0.00;;;;;;;19.16;53.39;98631.69;10370118;28;20045;-67
2023/10/21 12:13:47;;;;;;;1.17;0.20;;;;;;;19.21;53.08;98623.53;10377585;28;20054;-65
2023/10/21 12:19:25;;;;;;;1.55;0.05;;;;;;;19.46;52.88;98619.09;10379177;28;20033;-64
2023/10/21 12:40:30;;;;;;;3.35;0.20;;;;;;;19.87;51.69;98646.25;10363532;28;20052;-62
2023/10/21 12:45:20;;;;;;;1.75;0.10;;;;;;;19.89;51.23;98635.06;10361026;28;20046;-63
2023/10/21 12:50:21;;;;;;;0.30;0.10;;;;;;;19.86;50.87;98654.69;10364355;28;20483;-62
2023/10/21 12:55:25;;;;;;;1.65;0.15;;;;;;;19.88;50.62;98655.22;10361694;28;20046;-63
2023/10/21 13:00:27;;;;;;;1.52;0.10;;;;;;;19.52;50.83;98672.50;10364413;28;20049;-62
2023/10/21 13:05:29;;;;;;;0.85;0.20;;;;;;;19.54;51.00;98672.22;10347347;28;20120;-62
2023/10/21 13:10:32;;;;;;;1.88;0.10;;;;;;;19.71;50.20;98664.56;10350374;28;20058;-62
2023/10/21 13:15:36;;;;;;;0.52;0.10;;;;;;;19.54;49.54;98662.13;10346425;28;20041;-63
2023/10/21 13:20:39;;;;;;;1.95;0.22;;;;;;;19.44;49.14;98664.88;10366971;28;20456;-64
2023/10/21 13:25:41;;;;;;;1.10;0.20;;;;;;;19.61;48.89;98659.94;10346191;28;20042;-63
2023/10/21 13:30:44;;;;;;;1.73;0.20;;;;;;;19.87;48.86;98664.53;10351320;28;20056;-63
2023/10/21 13:35:46;;;;;;;1.05;0.10;;;;;;;19.86;48.79;98669.16;10347927;28;20046;-62
2023/10/21 13:40:52;;;;;;;3.40;0.50;;;;;;;19.82;48.65;98662.63;10346064;28;20053;-63
2023/10/21 13:45:54;;;;;;;0.77;0.20;;;;;;;19.83;48.81;98671.59;10360282;28;20053;-63
2023/10/21 13:50:55;;;;;;;0.32;0.10;;;;;;;19.90;48.59;98669.41;10347974;28;20140;-63
2023/10/21 13:55:57;;;;;;;2.03;0.10;;;;;;;19.94;47.87;98671.28;10357404;28;20108;-64
2023/10/21 14:01:01;;;;;;;1.50;0.10;;;;;;;19.95;47.57;98680.31;10342560;28;20061;-64
2023/10/21 14:06:04;;;;;;;1.92;0.75;;;;;;;20.01;47.96;98698.28;10359550;28;20042;-67
2023/10/21 14:11:08;;;;;;;1.95;0.00;;;;;;;20.13;47.58;98690.59;10360971;28;20045;-68
2023/10/21 14:16:11;;;;;;;0.47;0.10;;;;;;;20.40;46.78;98690.19;10357190;28;20042;-68
2023/10/21 14:21:13;;;;;;;5.05;0.10;;;;;;;20.53;47.04;98696.91;10357229;28;20049;-67
2023/10/21 14:26:15;;;;;;;4.72;0.13;;;;;;;20.44;46.14;98693.16;10361144;28;20405;-69
2023/10/21 14:31:27;;;;;;;0.80;0.10;;;;;;;20.50;45.07;98704.88;10345738;28;20057;-69
2023/10/21 14:36:29;;;;;;;0.68;0.00;;;;;;;20.44;45.40;98711.44;10362696;28;20062;-69
2023/10/21 14:41:33;;;;;;;1.20;0.10;;;;;;;20.46;44.66;98710.09;10361687;28;20100;-69
2023/10/21 14:46:34;;;;;;;1.10;0.32;;;;;;;20.40;44.99;98714.75;10362399;28;20060;-75
2023/10/21 14:51:36;;;;;;;0.20;0.10;;;;;;;20.18;44.88;98727.94;10362068;28;20034;-73
2023/10/21 14:56:38;;;;;;;2.03;0.10;;;;;;;20.39;44.58;98732.22;10361381;28;20158;-76
2023/10/21 15:01:40;;;;;;;0.73;0.10;;;;;;;20.34;44.90;98734.97;10343329;28;20064;-73
2023/10/21 15:06:42;;;;;;;0.90;0.30;;;;;;;20.25;44.91;98747.56;10362162;28;20046;-75
2023/10/21 15:11:43;;;;;;;4.30;0.20;;;;;;;20.23;45.06;98741.56;10361462;28;20104;-74
2023/10/21 15:16:45;;;;;;;2.63;0.20;;;;;;;20.14;44.77;98740.50;10359065;28;20045;-76
2023/10/21 15:21:47;;;;;;;1.30;0.10;;;;;;;19.94;45.11;98744.13;10360398;28;20069;-76
2023/10/21 15:26:51;;;;;;;0.60;0.10;;;;;;;19.88;45.11;98751.50;10356953;28;20050;-69
2023/10/21 15:31:53;;;;;;;1.80;0.20;;;;;;;19.87;45.45;98755.34;10357821;28;20449;-73
2023/10/21 15:36:55;;;;;;;3.78;0.20;;;;;;;19.67;45.58;98753.44;10359734;28;20506;-74
2023/10/21 15:41:58;;;;;;;0.35;0.10;;;;;;;19.46;46.35;98754.56;10347573;28;20374;-74
2023/10/21 15:47:00;;;;;;;0.17;0.10;;;;;;;19.36;46.60;98756.19;10358934;28;20041;-74
2023/10/21 15:52:02;;;;;;;1.20;0.38;;;;;;;19.29;46.40;98761.06;10360217;28;20042;-73
2023/10/21 15:57:04;;;;;;;3.05;0.47;;;;;;;19.10;46.64;98766.25;10360091;28;20121;-72
2023/10/21 16:02:05;;;;;;;1.63;0.20;;;;;;;19.01;47.14;98773.31;10358581;28;20045;-72
2023/10/21 16:07:06;;;;;;;2.83;0.22;;;;;;;18.86;47.39;98782.31;10360028;28;20064;-72
2023/10/21 16:12:08;;;;;;;0.95;0.28;;;;;;;18.82;47.77;98783.94;10362450;28;20049;-72
2023/10/21 16:17:09;;;;;;;2.20;0.40;;;;;;;18.69;48.15;98793.38;10374491;28;20583;-72
2023/10/21 16:22:11;;;;;;;4.60;0.28;;;;;;;18.57;48.42;98796.31;10356436;28;21055;-72
2023/10/21 16:27:12;;;;;;;1.40;0.22;;;;;;;18.42;48.75;98818.88;10359515;28;20047;-71
2023/10/21 16:32:15;;;;;;;2.88;0.55;;;;;;;18.26;49.39;98821.78;10357292;28;20046;-68
2023/10/21 16:37:16;;;;;;;2.92;0.43;;;;;;;18.08;50.08;98823.84;10359678;28;20065;-70
2023/10/21 16:42:18;;;;;;;10.40;3.05;;;;;;;17.91;50.94;98826.75;10356745;28;20129;-72
2023/10/21 16:47:19;;;;;;;17.50;5.32;;;;;;;17.76;51.67;98841.00;10371711;28;20060;-71
2023/10/21 16:52:21;;;;;;;13.25;4.25;;;;;;;17.64;52.11;98853.97;10376630;28;20061;-70
2023/10/21 16:57:22;;;;;;;20.52;3.42;;;;;;;17.58;52.61;98863.16;10371623;28;20081;-71
2023/10/21 17:02:24;;;;;;;11.27;2.67;;;;;;;17.52;52.88;98862.28;10362311;28;20057;-64
2023/10/21 17:07:28;;;;;;;18.73;4.93;;;;;;;17.47;53.15;98873.09;10364881;28;20045;-64
2023/10/21 17:12:30;;;;;;;17.77;5.10;;;;;;;17.40;53.56;98876.03;10368556;28;20053;-62
2023/10/21 17:17:36;;;;;;;16.90;5.43;;;;;;;17.37;53.59;98878.44;10363965;28;20132;-62
2023/10/21 17:22:37;;;;;;;17.33;6.15;;;;;;;17.32;53.86;98879.22;10368204;28;20046;-62
2023/10/21 17:27:39;;;;;;;12.73;4.18;;;;;;;17.26;54.22;98885.69;10355856;28;20038;-62
2023/10/21 17:32:40;;;;;;;12.65;5.10;;;;;;;17.19;54.58;98891.28;10366625;28;20054;-63
2023/10/21 17:37:43;;;;;;;18.05;6.30;;;;;;;17.11;55.04;98899.91;10357603;28;20046;-62
2023/10/21 17:42:46;;;;;;;12.45;4.43;;;;;;;17.04;55.38;98904.69;10344887;28;20042;-60
2023/10/21 17:47:48;;;;;;;17.92;4.53;;;;;;;16.95;56.00;98901.63;10362037;28;20464;-62
2023/10/21 17:52:49;;;;;;;16.17;5.20;;;;;;;16.77;56.49;98901.91;10361944;28;20052;-63
2023/10/21 17:57:51;;;;;;;20.48;5.35;;;;;;;16.60;56.92;98896.53;10360233;28;20037;-62
2023/10/21 18:02:52;;;;;;;7.60;2.03;;;;;;;16.43;56.93;98896.59;10355389;28;20067;-63
2023/10/21 18:07:56;;;;;;;9.15;2.55;;;;;;;16.25;57.46;98898.53;10357829;28;20050;-61
2023/10/21 18:12:58;;;;;;;10.20;1.65;;;;;;;16.16;57.72;98900.00;10360932;28;20510;-62
2023/10/21 18:17:59;;;;;;;6.03;1.20;;;;;;;16.04;57.47;98905.50;10357878;28;20129;-62
2023/10/21 18:23:01;;;;;;;2.92;0.68;;;;;;;15.96;57.45;98911.34;10359919;28;20052;-62
2023/10/21 18:28:03;;;;;;;4.60;0.85;;;;;;;15.86;57.39;98911.19;10362303;28;20046;-62
2023/10/21 18:33:05;;;;;;;2.88;0.77;;;;;;;15.75;57.86;98917.50;10356848;28;20038;-62
2023/10/21 18:38:06;;;;;;;3.30;1.00;;;;;;;15.64;58.00;98927.31;10359330;28;20052;-62
2023/10/21 18:43:08;;;;;;;7.82;1.50;;;;;;;15.52;58.25;98932.81;10358635;28;20065;-61
2023/10/21 18:48:09;;;;;;;9.60;4.70;;;;;;;15.39;58.77;98930.38;10356400;28;20042;-61
2023/10/21 18:53:11;;;;;;;12.40;5.82;;;;;;;15.20;59.24;98943.28;10357574;28;20524;-61
2023/10/21 18:58:12;;;;;;;12.90;6.07;;;;;;;15.03;59.78;98948.66;10359038;28;20408;-62
2023/10/21 19:03:13;;;;;;;8.57;3.83;;;;;;;14.82;60.47;98959.03;10356413;28;20429;-61
2023/10/21 19:08:15;;;;;;;8.32;4.03;;;;;;;14.70;60.72;98966.34;10358869;28;20053;-60
2023/10/21 19:13:17;;;;;;;6.47;4.03;;;;;;;14.60;61.04;98974.25;10356905;28;20054;-62
2023/10/21 19:18:19;;;;;;;7.53;3.95;;;;;;;14.48;61.57;98979.63;10341672;28;20053;-61
2023/10/21 19:23:20;;;;;;;7.43;3.90;;;;;;;14.31;61.65;98990.31;10360542;28;20295;-61
2023/10/21 19:28:27;;;;;;;9.55;4.47;;;;;;;14.14;61.92;98995.59;10343500;28;20041;-63
2023/10/21 19:33:28;;;;;;;5.50;4.33;;;;;;;13.98;62.43;99001.66;10359771;28;20566;-62
2023/10/21 19:38:30;;;;;;;9.02;4.78;;;;;;;13.75;63.06;99011.34;10339088;28;20053;-62
2023/10/21 19:43:32;;;;;;;8.50;3.83;;;;;;;13.59;63.65;99017.41;10355893;28;20057;-62
2023/10/21 19:48:35;;;;;;;10.88;5.25;;;;;;;13.50;63.77;99022.28;10357083;28;20161;-62
2023/10/21 19:53:37;;;;;;;9.95;3.25;;;;;;;13.47;64.02;99028.97;10352065;28;20042;-62
2023/10/21 19:58:38;;;;;;;5.30;3.17;;;;;;;13.46;64.12;99030.00;10355932;28;20493;-63
2023/10/21 20:03:40;;;;;;;7.47;3.65;;;;;;;13.42;64.18;99036.91;10356095;28;20042;-62
2023/10/21 20:08:41;;;;;;;9.88;3.30;;;;;;;13.41;64.26;99040.69;10338505;28;20041;-63
2023/10/21 20:13:43;;;;;;;8.52;3.13;;;;;;;13.42;64.34;99036.91;10353095;28;20045;-62
2023/10/21 20:18:44;;;;;;;5.30;2.53;;;;;;;13.37;64.64;99041.34;10359701;28;20056;-63
2023/10/21 20:23:47;;;;;;;6.57;2.90;;;;;;;13.36;64.62;99034.31;10364360;28;20052;-62
2023/10/21 20:28:48;;;;;;;9.02;3.20;;;;;;;13.37;65.01;99039.47;10367236;28;20038;-62
2023/10/21 20:33:49;;;;;;;7.57;2.75;;;;;;;13.38;65.04;99049.22;10363481;28;21712;-63
2023/10/21 20:38:51;;;;;;;6.45;2.65;;;;;;;13.47;65.05;99049.75;10363207;28;20126;-63
2023/10/21 20:43:52;;;;;;;3.75;2.10;;;;;;;13.51;64.85;99050.94;10362989;28;20046;-63
2023/10/21 20:48:54;;;;;;;7.05;1.98;;;;;;;13.48;65.01;99056.78;10362739;28;20848;-62
2023/10/21 20:53:55;;;;;;;7.45;1.85;;;;;;;13.44;65.19;99052.88;10362243;28;20109;-61
2023/10/21 20:58:58;;;;;;;4.82;2.50;;;;;;;13.47;65.22;99060.53;10364329;28;20042;-62
2023/10/21 21:03:59;;;;;;;2.83;1.13;;;;;;;13.44;65.16;99063.69;10361878;28;20046;-61
2023/10/21 21:09:01;;;;;;;7.10;1.45;;;;;;;13.59;64.89;99064.13;10364188;28;20038;-62
2023/10/21 21:14:02;;;;;;;1.98;0.40;;;;;;;13.75;64.51;99076.16;10359001;28;20481;-62
2023/10/21 21:19:04;;;;;;;3.08;0.50;;;;;;;13.91;64.16;99069.31;10359713;28;20046;-62
2023/10/21 21:24:06;;;;;;;5.22;0.70;;;;;;;13.98;64.05;99067.34;10360773;28;20493;-62
2023/10/21 21:29:09;;;;;;;5.15;1.45;;;;;;;13.97;63.94;99072.97;10361747;28;20050;-61
2023/10/21 21:34:10;;;;;;;4.70;0.80;;;;;;;13.85;63.98;99070.22;10360262;28;20050;-62
2023/10/21 21:39:14;;;;;;;4.50;1.08;;;;;;;13.70;64.42;99070.63;10362413;28;20058;-62
2023/10/21 21:44:16;;;;;;;4.63;1.52;;;;;;;13.61;64.35;99077.41;10360165;28;20069;-62
2023/10/21 21:49:17;;;;;;;4.72;1.83;;;;;;;13.52;64.42;99082.28;10366339;28;20140;-62
2023/10/21 21:54:19;;;;;;;8.65;2.42;;;;;;;13.35;64.72;99092.03;10365544;28;20140;-62
2023/10/21 21:59:21;;;;;;;6.40;1.90;;;;;;;13.21;64.83;99091.31;10362742;28;20046;-62
2023/10/21 22:04:22;;;;;;;6.38;1.95;;;;;;;13.04;65.16;99083.81;10364813;28;20422;-62
2023/10/21 22:09:25;;;;;;;3.88;1.13;;;;;;;12.95;65.32;99085.16;10381904;28;20432;-63
2023/10/21 22:14:26;;;;;;;4.75;1.25;;;;;;;12.73;65.56;99082.03;10364599;28;20070;-62
2023/10/21 22:19:28;;;;;;;2.20;1.05;;;;;;;12.57;66.01;99077.22;10352064;28;20417;-61
2023/10/21 22:24:30;;;;;;;4.70;1.40;;;;;;;12.47;65.92;99086.63;10364990;28;20045;-61
2023/10/21 22:29:39;;;;;;;4.40;1.00;;;;;;;12.35;66.29;99090.25;10365803;28;20046;-61
2023/10/21 22:34:41;;;;;;;3.33;1.13;;;;;;;12.33;66.03;99095.84;10358796;28;20050;-62
2023/10/21 22:39:42;;;;;;;2.58;0.90;;;;;;;12.32;66.19;99104.97;10358398;28;20045;-62
2023/10/21 22:44:45;;;;;;;6.28;1.02;;;;;;;12.25;66.19;99106.91;10358084;28;20154;-62
2023/10/21 22:49:47;;;;;;;3.13;1.05;;;;;;;12.18;66.57;99123.09;10358961;28;20054;-61
2023/10/21 22:54:48;;;;;;;4.03;1.00;;;;;;;12.19;66.75;99122.06;10361676;28;20539;-61
2023/10/21 22:59:56;;;;;;;3.58;1.15;;;;;;;12.14;67.05;99126.44;10362160;28;20069;-61
2023/10/21 23:04:58;;;;;;;3.20;1.13;;;;;;;12.09;66.83;99132.50;10359580;28;20612;-61
2023/10/21 23:10:00;;;;;;;4.78;0.85;;;;;;;12.16;66.79;99144.03;10359395;28;20068;-61
2023/10/21 23:15:03;;;;;;;2.47;0.77;;;;;;;12.25;66.66;99142.75;10374756;28;20046;-61
2023/10/21 23:20:05;;;;;;;4.47;0.77;;;;;;;12.23;66.65;99142.13;10358186;28;20085;-61
2023/10/21 23:25:10;;;;;;;3.72;1.20;;;;;;;12.23;66.75;99152.09;10358396;28;20346;-61
2023/10/21 23:30:13;;;;;;;9.77;1.10;;;;;;;12.17;66.87;99155.66;10359274;28;20050;-62
2023/10/21 23:35:15;;;;;;;7.43;1.27;;;;;;;12.13;66.63;99154.44;10355202;28;20041;-61
2023/10/21 23:40:16;;;;;;;3.65;0.60;;;;;;;12.22;66.69;99155.81;10356437;28;20050;-61
2023/10/21 23:45:20;;;;;;;5.25;0.60;;;;;;;12.32;66.80;99164.25;10358541;28;20045;-61
2023/10/21 23:50:21;;;;;;;2.35;0.70;;;;;;;12.32;66.50;99171.50;10373814;28;20074;-62